Observation data for Seagraves on 01/11/2018      Previous  Date  Next       Current Mesonet Observations  Soil Data  Daily Summary Page  Observations in Plain Language
KSGV 110600Z 23016KT 08/00 A2967 RMK A01 T00820002  RH  058%=      5-min Rain = 0
KSGV 110605Z 24015KT 08/00 A2967 RMK A01 T00810002  RH  058%=      5-min Rain = 0
KSGV 110610Z 24015G20KT 08/00 A2967 RMK A01 T00810003  RH  058%=      5-min Rain = 0
KSGV 110615Z 23015G20KT 08/00 A2967 RMK A01 T00820003  RH  058%=      5-min Rain = 0
KSGV 110620Z 23014KT 08/00 A2967 RMK A01 T00800002  RH  059%=      5-min Rain = 0
KSGV 110625Z 23013KT 08/00 A2968 RMK A01 T00770002  RH  060%=      5-min Rain = 0
KSGV 110630Z 22014KT 08/00 A2968 RMK A01 T00770002  RH  060%=      5-min Rain = 0
KSGV 110635Z 22014KT 08/00 A2968 RMK A01 T00770003  RH  060%=      5-min Rain = 0
KSGV 110640Z 23014G20KT 08/00 A2967 RMK A01 T00770003  RH  060%=      5-min Rain = 0
KSGV 110645Z 23014G20KT 08/00 A2967 RMK A01 T00770003  RH  060%=      5-min Rain = 0
KSGV 110650Z 23013KT 08/00 A2967 RMK A01 T00750003  RH  061%=      5-min Rain = 0
KSGV 110655Z 22013KT 07/00 A2967 RMK A01 T00740003  RH  061%=      5-min Rain = 0
KSGV 110700Z 22012KT 07/00 A2967 RMK A01 T00730003  RH  062%=      5-min Rain = 0
KSGV 110705Z 21012KT 07/00 A2967 RMK A01 T00730003  RH  062%=      5-min Rain = 0
KSGV 110710Z 22012KT 07/00 A2967 RMK A01 T00710002  RH  062%=      5-min Rain = 0
KSGV 110715Z 23012KT 07/00 A2967 RMK A01 T00690002  RH  063%=      5-min Rain = 0
KSGV 110720Z 23012KT 07/00 A2967 RMK A01 T00670002  RH  064%=      5-min Rain = 0
KSGV 110725Z 24012KT 07/00 A2967 RMK A01 T00650001  RH  064%=      5-min Rain = 0
KSGV 110730Z 24011KT 06/00 A2967 RMK A01 T00640001  RH  065%=      5-min Rain = 0
KSGV 110735Z 23011KT 06/00 A2967 RMK A01 T00630001  RH  065%=      5-min Rain = 0
KSGV 110740Z 22012KT 06/00 A2967 RMK A01 T00620001  RH  065%=      5-min Rain = 0
KSGV 110745Z 22011KT 06/00 A2967 RMK A01 T00620000  RH  065%=      5-min Rain = 0
KSGV 110750Z 22011KT 06/00 A2967 RMK A01 T00620001  RH  065%=      5-min Rain = 0
KSGV 110755Z 23010KT 06/00 A2967 RMK A01 T00620000  RH  066%=      5-min Rain = 0
KSGV 110800Z 24011KT 06/00 A2967 RMK A01 T00610001  RH  066%=      5-min Rain = 0
KSGV 110805Z 24011KT 06/00 A2967 RMK A01 T00620001  RH  066%=      5-min Rain = 0
KSGV 110810Z 24010KT 06/00 A2968 RMK A01 T00610001  RH  066%=      5-min Rain = 0
KSGV 110815Z 24010KT 06/00 A2968 RMK A01 T00630001  RH  065%=      5-min Rain = 0
KSGV 110820Z 23011KT 06/00 A2968 RMK A01 T00640002  RH  065%=      5-min Rain = 0
KSGV 110825Z 24011KT 07/00 A2968 RMK A01 T00670003  RH  064%=      5-min Rain = 0
KSGV 110830Z 24011KT 07/00 A2969 RMK A01 T00690004  RH  064%=      5-min Rain = 0
KSGV 110835Z 24012KT 07/00 A2969 RMK A01 T00700004  RH  063%=      5-min Rain = 0
KSGV 110840Z 24012KT 07/01 A2969 RMK A01 T00710006  RH  064%=      5-min Rain = 0
KSGV 110845Z 25012KT 07/01 A2968 RMK A01 T00710006  RH  064%=      5-min Rain = 0
KSGV 110850Z 25013KT 07/01 A2969 RMK A01 T00720007  RH  064%=      5-min Rain = 0
KSGV 110855Z 25013KT 07/01 A2969 RMK A01 T00730007  RH  064%=      5-min Rain = 0
KSGV 110900Z 25013KT 07/01 A2969 RMK A01 T00730007  RH  063%=      5-min Rain = 0
KSGV 110905Z 26012KT 07/01 A2969 RMK A01 T00730006  RH  063%=      5-min Rain = 0
KSGV 110910Z 26011KT 07/01 A2969 RMK A01 T00730006  RH  063%=      5-min Rain = 0
KSGV 110915Z 26011KT 08/01 A297 RMK A01 T00750006  RH  063%=      5-min Rain = 0
KSGV 110920Z 26012KT 08/01 A297 RMK A01 T00780007  RH  061%=      5-min Rain = 0
KSGV 110925Z 26012KT 08/01 A297 RMK A01 T00820007  RH  060%=      5-min Rain = 0
KSGV 110930Z 26012KT 09/01 A297 RMK A01 T00850007  RH  059%=      5-min Rain = 0
KSGV 110935Z 26014G19KT 09/01 A297 RMK A01 T00890006  RH  057%=      5-min Rain = 0
KSGV 110940Z 27015KT 09/01 A297 RMK A01 T00940006  RH  055%=      5-min Rain = 0
KSGV 110945Z 27015KT 10/01 A2971 RMK A01 T00950006  RH  054%=      5-min Rain = 0
KSGV 110950Z 27014G22KT 10/01 A2971 RMK A01 T00970006  RH  054%=      5-min Rain = 0
KSGV 110955Z 27015G20KT 10/01 A2971 RMK A01 T00980006  RH  053%=      5-min Rain = 0
KSGV 111000Z 27012G17KT 10/01 A2971 RMK A01 T00980007  RH  054%=      5-min Rain = 0
KSGV 111005Z 27012KT 10/01 A2972 RMK A01 T00970007  RH  054%=      5-min Rain = 0
KSGV 111010Z 28015G22KT 10/01 A2972 RMK A01 T00980006  RH  053%=      5-min Rain = 0
KSGV 111015Z 28016KT 10/01 A2972 RMK A01 T01010006  RH  052%=      5-min Rain = 0
KSGV 111020Z 29017G22KT 10/01 A2972 RMK A01 T01030006  RH  052%=      5-min Rain = 0
KSGV 111025Z 29016G21KT 10/01 A2973 RMK A01 T01030006  RH  051%=      5-min Rain = 0
KSGV 111030Z 29017G23KT 10/01 A2973 RMK A01 T01030007  RH  052%=      5-min Rain = 0
KSGV 111035Z 30016KT 10/01 A2974 RMK A01 T01020007  RH  052%=      5-min Rain = 0
KSGV 111040Z 30019KT 10/01 A2974 RMK A01 T01010009  RH  053%=      5-min Rain = 0
KSGV 111045Z 31019G24KT 10/01 A2974 RMK A01 T01000009  RH  054%=      5-min Rain = 0
KSGV 111050Z 31018G24KT 10/01 A2975 RMK A01 T00980010  RH  055%=      5-min Rain = 0
KSGV 111055Z 31017G22KT 10/01 A2975 RMK A01 T00980011  RH  055%=      5-min Rain = 0
KSGV 111100Z 32014G19KT 10/01 A2976 RMK A01 T00980011  RH  056%=      5-min Rain = 0
KSGV 111105Z 32018KT 10/01 A2976 RMK A01 T00980013  RH  056%=      5-min Rain = 0
KSGV 111110Z 34019G24KT 10/02 A2977 RMK A01 T00980015  RH  057%=      5-min Rain = 0
KSGV 111115Z 36022G32KT 10/02 A2978 RMK A01 T00960016  RH  058%=      5-min Rain = 0
KSGV 111120Z 01018G24KT 09/01 A2979 RMK A01 T00910014  RH  059%=      5-min Rain = 0
KSGV 111125Z 01014G19KT 09/02 A2979 RMK A01 T00880016  RH  061%=      5-min Rain = 0
KSGV 111130Z 01015G23KT 09/01 A2979 RMK A01 T00870013  RH  061%=      5-min Rain = 0
KSGV 111135Z 01017G24KT 09/01 A2979 RMK A01 T00870009  RH  059%=      5-min Rain = 0
KSGV 111140Z 00017G23KT 09/01 A298 RMK A01 T00860008  RH  059%=      5-min Rain = 0
KSGV 111145Z 35015KT 09/02 A298 RMK A01 T00850016  RH  063%=      5-min Rain = 0
KSGV 111150Z 35015G21KT 08/02 A298 RMK A01 T00840023  RH  066%=      5-min Rain = 0
KSGV 111155Z 35021G27KT 08/02 A2981 RMK A01 T00830019  RH  065%=      5-min Rain = 0
KSGV 111200Z 36022G29KT 08/01 A2981 RMK A01 T00830009  RH  060%=      5-min Rain = 0
KSGV 111205Z 35018KT 08/01 A2981 RMK A01 T00810010  RH  061%=      5-min Rain = 0
KSGV 111210Z 35018G24KT 08/01 A2981 RMK A01 T00800012  RH  063%=      5-min Rain = 0
KSGV 111215Z 35018G27KT 08/01 A2982 RMK A01 T00780012  RH  064%=      5-min Rain = 0
KSGV 111220Z 35022G29KT 08/01 A2982 RMK A01 T00770008  RH  062%=      5-min Rain = 0
KSGV 111225Z 35022G28KT 08/01 A2982 RMK A01 T00750009  RH  063%=      5-min Rain = 0
KSGV 111230Z 35020G26KT 07/01 A2983 RMK A01 T00740009  RH  064%=      5-min Rain = 0
KSGV 111235Z 35018G23KT 07/01 A2983 RMK A01 T00730009  RH  065%=      5-min Rain = 0
KSGV 111240Z 34016G23KT 07/01 A2984 RMK A01 T00730010  RH  065%=      5-min Rain = 0
KSGV 111245Z 34024G31KT 07/01 A2985 RMK A01 T00720008  RH  064%=      5-min Rain = 0
KSGV 111250Z 35022G29KT 07/00 A2985 RMK A01 T00720004  RH  063%=      5-min Rain = 0
KSGV 111255Z 35022G28KT 07/00 A2986 RMK A01 T00720003  RH  062%=      5-min Rain = 0
KSGV 111300Z 34020G26KT 07/00 A2986 RMK A01 T00720003  RH  062%=      5-min Rain = 0
KSGV 111305Z 34021G28KT 07/00 A2987 RMK A01 T00710002  RH  062%=      5-min Rain = 0
KSGV 111310Z 36023G31KT 07/M00 A2987 RMK A01 T00701001  RH  061%=      5-min Rain = 0
KSGV 111315Z 36021G28KT 07/M00 A2987 RMK A01 T00691003  RH  061%=      5-min Rain = 0
KSGV 111320Z 35018G25KT 07/M00 A2988 RMK A01 T00681003  RH  061%=      5-min Rain = 0
KSGV 111325Z 35019G24KT 07/M00 A2989 RMK A01 T00671003  RH  061%=      5-min Rain = 0
KSGV 111330Z 35018G27KT 07/M00 A2989 RMK A01 T00671002  RH  062%=      5-min Rain = 0
KSGV 111335Z 34021G26KT 07/M00 A2989 RMK A01 T00661001  RH  063%=      5-min Rain = 0
KSGV 111340Z 35019G26KT 06/M00 A299 RMK A01 T00641001  RH  064%=      5-min Rain = 0
KSGV 111345Z 35022G30KT 06/M00 A299 RMK A01 T00611003  RH  064%=      5-min Rain = 0
KSGV 111350Z 35021G28KT 06/M01 A2991 RMK A01 T00581006  RH  064%=      5-min Rain = 0
KSGV 111355Z 35021G28KT 06/M01 A2991 RMK A01 T00571009  RH  064%=      5-min Rain = 0
KSGV 111400Z 35021G27KT 06/M01 A2991 RMK A01 T00561009  RH  063%=      5-min Rain = 0
KSGV 111405Z 36021G28KT 06/M01 A2991 RMK A01 T00561011  RH  063%=      5-min Rain = 0
KSGV 111410Z 36019G25KT 06/M01 A2992 RMK A01 T00551011  RH  063%=      5-min Rain = 0
KSGV 111415Z 35018G23KT 06/M01 A2993 RMK A01 T00551012  RH  063%=      5-min Rain = 0
KSGV 111420Z 35021G26KT 06/M01 A2993 RMK A01 T00551012  RH  063%=      5-min Rain = 0
KSGV 111425Z 35017G22KT 06/M01 A2994 RMK A01 T00551012  RH  063%=      5-min Rain = 0
KSGV 111430Z 35016G22KT 06/M01 A2995 RMK A01 T00551012  RH  063%=      5-min Rain = 0
KSGV 111435Z 34015KT 06/M01 A2995 RMK A01 T00551010  RH  064%=      5-min Rain = 0
KSGV 111440Z 34021G32KT 05/M02 A2996 RMK A01 T00531015  RH  062%=      5-min Rain = 0
KSGV 111445Z 35024G29KT 05/M03 A2997 RMK A01 T00491025  RH  059%=      5-min Rain = 0
KSGV 111450Z 34025G31KT 05/M03 A2998 RMK A01 T00471033  RH  057%=      5-min Rain = 0
KSGV 111455Z 34023G31KT 05/M04 A2999 RMK A01 T00451038  RH  055%=      5-min Rain = 0
KSGV 111500Z 35026G32KT 04/M04 A30 RMK A01 T00431044  RH  054%=      5-min Rain = 0
KSGV 111505Z 35025G32KT 04/M05 A3001 RMK A01 T00421046  RH  053%=      5-min Rain = 0
KSGV 111510Z 35025G34KT 04/M05 A3002 RMK A01 T00421049  RH  052%=      5-min Rain = 0
KSGV 111515Z 35023G34KT 04/M05 A3002 RMK A01 T00411050  RH  052%=      5-min Rain = 0
KSGV 111520Z 35021G27KT 04/M05 A3003 RMK A01 T00411052  RH  051%=      5-min Rain = 0
KSGV 111525Z 35024G30KT 04/M06 A3003 RMK A01 T00411055  RH  050%=      5-min Rain = 0
KSGV 111530Z 35024G31KT 04/M06 A3004 RMK A01 T00401056  RH  050%=      5-min Rain = 0
KSGV 111535Z 36021G27KT 04/M05 A3004 RMK A01 T00401054  RH  051%=      5-min Rain = 0
KSGV 111540Z 35020G26KT 04/M05 A3005 RMK A01 T00411052  RH  051%=      5-min Rain = 0
KSGV 111545Z 35020G25KT 04/M05 A3005 RMK A01 T00421051  RH  051%=      5-min Rain = 0
KSGV 111550Z 35019G25KT 04/M05 A3006 RMK A01 T00421050  RH  052%=      5-min Rain = 0
KSGV 111555Z 35019KT 04/M05 A3006 RMK A01 T00421047  RH  053%=      5-min Rain = 0
KSGV 111600Z 34017G22KT 05/M05 A3006 RMK A01 T00451045  RH  053%=      5-min Rain = 0
KSGV 111605Z 34019G25KT 05/M04 A3007 RMK A01 T00491042  RH  052%=      5-min Rain = 0
KSGV 111610Z 34023KT 05/M05 A3008 RMK A01 T00461051  RH  050%=      5-min Rain = 0
KSGV 111615Z 34023G29KT 04/M06 A3009 RMK A01 T00401056  RH  050%=      5-min Rain = 0
KSGV 111620Z 34024G30KT 04/M06 A3009 RMK A01 T00361062  RH  049%=      5-min Rain = 0
KSGV 111625Z 34025G31KT 04/M06 A301 RMK A01 T00351064  RH  049%=      5-min Rain = 0
KSGV 111630Z 34023G30KT 04/M07 A301 RMK A01 T00351065  RH  048%=      5-min Rain = 0
KSGV 111635Z 35022G29KT 04/M07 A301 RMK A01 T00351067  RH  048%=      5-min Rain = 0
KSGV 111640Z 35021G27KT 04/M07 A3011 RMK A01 T00361068  RH  047%=      5-min Rain = 0
KSGV 111645Z 35023G28KT 04/M07 A3011 RMK A01 T00391068  RH  046%=      5-min Rain = 0
KSGV 111650Z 35023KT 04/M07 A3012 RMK A01 T00401070  RH  045%=      5-min Rain = 0
KSGV 111655Z 35023G30KT 04/M07 A3012 RMK A01 T00441071  RH  044%=      5-min Rain = 0
KSGV 111700Z 35023G32KT 05/M07 A3012 RMK A01 T00491071  RH  042%=      5-min Rain = 0
KSGV 111705Z 35021G28KT 06/M07 A3013 RMK A01 T00551072  RH  040%=      5-min Rain = 0
KSGV 111710Z 35021G26KT 06/M07 A3013 RMK A01 T00561074  RH  039%=      5-min Rain = 0
KSGV 111715Z 35022G27KT 06/M08 A3013 RMK A01 T00551075  RH  039%=      5-min Rain = 0
KSGV 111720Z 35022G30KT 06/M08 A3014 RMK A01 T00601076  RH  037%=      5-min Rain = 0
KSGV 111725Z 35024G29KT 06/M08 A3015 RMK A01 T00631079  RH  036%=      5-min Rain = 0
KSGV 111730Z 35020G27KT 06/M08 A3015 RMK A01 T00611081  RH  036%=      5-min Rain = 0
KSGV 111735Z 35022G28KT 06/M08 A3015 RMK A01 T00621082  RH  035%=      5-min Rain = 0
KSGV 111740Z 35021G29KT 07/M08 A3015 RMK A01 T00651084  RH  034%=      5-min Rain = 0
KSGV 111745Z 35021G27KT 07/M09 A3016 RMK A01 T00691086  RH  033%=      5-min Rain = 0
KSGV 111750Z 36024G31KT 07/M09 A3016 RMK A01 T00671091  RH  032%=      5-min Rain = 0
KSGV 111755Z 36021G27KT 06/M09 A3016 RMK A01 T00641091  RH  032%=      5-min Rain = 0
KSGV 111800Z 35022G28KT 07/M09 A3016 RMK A01 T00701090  RH  032%=      5-min Rain = 0
KSGV 111805Z 35023G29KT 07/M09 A3016 RMK A01 T00691094  RH  031%=      5-min Rain = 0
KSGV 111810Z 36021G30KT 07/M09 A3016 RMK A01 T00681093  RH  031%=      5-min Rain = 0
KSGV 111815Z 36018G24KT 08/M09 A3016 RMK A01 T00761090  RH  030%=      5-min Rain = 0
KSGV 111820Z 35020G26KT 08/M09 A3016 RMK A01 T00801092  RH  029%=      5-min Rain = 0
KSGV 111825Z 35023G30KT 08/M10 A3016 RMK A01 T00781095  RH  029%=      5-min Rain = 0
KSGV 111830Z 01022G27KT 08/M10 A3016 RMK A01 T00771098  RH  028%=      5-min Rain = 0
KSGV 111835Z 00018G25KT 08/M10 A3016 RMK A01 T00811095  RH  028%=      5-min Rain = 0
KSGV 111840Z 35021G30KT 08/M10 A3016 RMK A01 T00831096  RH  027%=      5-min Rain = 0
KSGV 111845Z 35023G28KT 08/M10 A3016 RMK A01 T00841098  RH  027%=      5-min Rain = 0
KSGV 111850Z 00022G28KT 09/M10 A3016 RMK A01 T00861098  RH  026%=      5-min Rain = 0
KSGV 111855Z 00019G25KT 09/M10 A3016 RMK A01 T00861096  RH  027%=      5-min Rain = 0
KSGV 111900Z 36018G25KT 09/M09 A3016 RMK A01 T00861093  RH  027%=      5-min Rain = 0
KSGV 111905Z 35021G26KT 09/M10 A3016 RMK A01 T00871097  RH  027%=      5-min Rain = 0
KSGV 111910Z 35021G27KT 09/M10 A3016 RMK A01 T00871097  RH  026%=      5-min Rain = 0
KSGV 111915Z 36020G27KT 09/M10 A3016 RMK A01 T00901096  RH  026%=      5-min Rain = 0
KSGV 111920Z 36017G24KT 09/M10 A3016 RMK A01 T00921096  RH  026%=      5-min Rain = 0
KSGV 111925Z 35020G27KT 09/M10 A3016 RMK A01 T00931098  RH  025%=      5-min Rain = 0
KSGV 111930Z 35019G27KT 09/M10 A3016 RMK A01 T00921097  RH  025%=      5-min Rain = 0
KSGV 111935Z 35020G27KT 09/M10 A3016 RMK A01 T00921099  RH  025%=      5-min Rain = 0
KSGV 111940Z 00019G26KT 09/M10 A3016 RMK A01 T00931100  RH  025%=      5-min Rain = 0
KSGV 111945Z 00016KT 09/M10 A3016 RMK A01 T00941097  RH  025%=      5-min Rain = 0
KSGV 111950Z 35019G24KT 09/M10 A3016 RMK A01 T00941095  RH  026%=      5-min Rain = 0
KSGV 111955Z 35020G29KT 09/M10 A3016 RMK A01 T00941096  RH  025%=      5-min Rain = 0
KSGV 112000Z 35021G27KT 09/M10 A3016 RMK A01 T00941097  RH  025%=      5-min Rain = 0
KSGV 112005Z 35020KT 09/M10 A3017 RMK A01 T00931096  RH  026%=      5-min Rain = 0
KSGV 112010Z 00018G24KT 09/M10 A3017 RMK A01 T00911097  RH  026%=      5-min Rain = 0
KSGV 112015Z 35017G22KT 09/M10 A3017 RMK A01 T00921097  RH  026%=      5-min Rain = 0
KSGV 112020Z 35018KT 10/M10 A3017 RMK A01 T00961095  RH  025%=      5-min Rain = 0
KSGV 112025Z 35016G23KT 10/M10 A3017 RMK A01 T00971095  RH  025%=      5-min Rain = 0
KSGV 112030Z 34016KT 10/M09 A3017 RMK A01 T01001094  RH  025%=      5-min Rain = 0
KSGV 112035Z 35014G20KT 10/M09 A3017 RMK A01 T01021093  RH  025%=      5-min Rain = 0
KSGV 112040Z 35017G23KT 10/M10 A3017 RMK A01 T01041097  RH  023%=      5-min Rain = 0
KSGV 112045Z 36016KT 10/M10 A3018 RMK A01 T00991098  RH  024%=      5-min Rain = 0
KSGV 112050Z 34017G22KT 10/M10 A3018 RMK A01 T01021097  RH  024%=      5-min Rain = 0
KSGV 112055Z 36016G23KT 11/M10 A3018 RMK A01 T01051098  RH  023%=      5-min Rain = 0
KSGV 112100Z 35017G22KT 10/M10 A3019 RMK A01 T01011100  RH  024%=      5-min Rain = 0
KSGV 112105Z 36015G21KT 10/M10 A3019 RMK A01 T00991099  RH  024%=      5-min Rain = 0
KSGV 112110Z 35017G22KT 10/M10 A3019 RMK A01 T01001102  RH  023%=      5-min Rain = 0
KSGV 112115Z 36018G23KT 10/M11 A3019 RMK A01 T00971105  RH  023%=      5-min Rain = 0
KSGV 112120Z 00015G20KT 10/M10 A3019 RMK A01 T00981103  RH  023%=      5-min Rain = 0
KSGV 112125Z 01015G22KT 10/M10 A3019 RMK A01 T00991103  RH  023%=      5-min Rain = 0
KSGV 112130Z 36013G19KT 10/M10 A3019 RMK A01 T01011102  RH  023%=      5-min Rain = 0
KSGV 112135Z 00014G21KT 10/M10 A3019 RMK A01 T01031103  RH  023%=      5-min Rain = 0
KSGV 112140Z 35016G21KT 10/M10 A3019 RMK A01 T01021103  RH  023%=      5-min Rain = 0
KSGV 112145Z 36014G19KT 10/M10 A302 RMK A01 T01031103  RH  023%=      5-min Rain = 0
KSGV 112150Z 35016G21KT 10/M10 A302 RMK A01 T01041102  RH  023%=      5-min Rain = 0
KSGV 112155Z 35013G18KT 10/M10 A302 RMK A01 T01031102  RH  023%=      5-min Rain = 0
KSGV 112200Z 35015G20KT 10/M10 A302 RMK A01 T01031103  RH  023%=      5-min Rain = 0
KSGV 112205Z 35015G20KT 10/M10 A302 RMK A01 T01021103  RH  023%=      5-min Rain = 0
KSGV 112210Z 35014KT 10/M10 A3021 RMK A01 T01031102  RH  023%=      5-min Rain = 0
KSGV 112215Z 00014G20KT 10/M10 A3021 RMK A01 T01001104  RH  023%=      5-min Rain = 0
KSGV 112220Z 35014G19KT 10/M10 A3021 RMK A01 T01001103  RH  023%=      5-min Rain = 0
KSGV 112225Z 35013KT 10/M10 A3021 RMK A01 T01001103  RH  023%=      5-min Rain = 0
KSGV 112230Z 36012KT 10/M10 A3021 RMK A01 T01011102  RH  023%=      5-min Rain = 0
KSGV 112235Z 36012G18KT 10/M10 A3021 RMK A01 T01011101  RH  023%=      5-min Rain = 0
KSGV 112240Z 01013G18KT 10/M10 A3021 RMK A01 T00991101  RH  023%=      5-min Rain = 0
KSGV 112245Z 01010KT 10/M10 A3021 RMK A01 T00991101  RH  024%=      5-min Rain = 0
KSGV 112250Z 00011KT 10/M10 A3021 RMK A01 T01001100  RH  024%=      5-min Rain = 0
KSGV 112255Z 00012KT 10/M10 A3021 RMK A01 T00991101  RH  024%=      5-min Rain = 0
KSGV 112300Z 35011G16KT 10/M10 A3022 RMK A01 T00971100  RH  024%=      5-min Rain = 0
KSGV 112305Z 35014KT 10/M10 A3022 RMK A01 T00971101  RH  024%=      5-min Rain = 0
KSGV 112310Z 34011KT 10/M10 A3022 RMK A01 T00951101  RH  024%=      5-min Rain = 0
KSGV 112315Z 35010G15KT 09/M10 A3022 RMK A01 T00941101  RH  024%=      5-min Rain = 0
KSGV 112320Z 00011G16KT 09/M10 A3022 RMK A01 T00941103  RH  024%=      5-min Rain = 0
KSGV 112325Z 01010KT 09/M10 A3022 RMK A01 T00921103  RH  024%=      5-min Rain = 0
KSGV 112330Z 01009KT 09/M10 A3023 RMK A01 T00921103  RH  024%=      5-min Rain = 0
KSGV 112335Z 36010G15KT 09/M10 A3023 RMK A01 T00911103  RH  024%=      5-min Rain = 0
KSGV 112340Z 36010KT 09/M10 A3023 RMK A01 T00881103  RH  025%=      5-min Rain = 0
KSGV 112345Z 36008KT 09/M10 A3023 RMK A01 T00861104  RH  025%=      5-min Rain = 0
KSGV 112350Z 01008KT 08/M10 A3023 RMK A01 T00841104  RH  025%=      5-min Rain = 0
KSGV 112355Z 02008KT 08/M11 A3023 RMK A01 T00821106  RH  026%=      5-min Rain = 0
KSGV 120000Z 02007KT 08/M11 A3023 RMK A01 T00791106  RH  026%=      5-min Rain = 0
KSGV 120005Z 01006KT 08/M11 A3023 RMK A01 T00761107  RH  026%=      5-min Rain = 0
KSGV 120010Z 01007KT 07/M11 A3024 RMK A01 T00731107  RH  027%=      5-min Rain = 0
KSGV 120015Z 02007KT 07/M11 A3024 RMK A01 T00711107  RH  027%=      5-min Rain = 0
KSGV 120020Z 01005KT 07/M11 A3024 RMK A01 T00691108  RH  027%=      5-min Rain = 0
KSGV 120025Z 02004KT 06/M11 A3024 RMK A01 T00641109  RH  028%=      5-min Rain = 0
KSGV 120030Z 02004KT 06/M11 A3024 RMK A01 T00621109  RH  029%=      5-min Rain = 0
KSGV 120035Z 02003KT 06/M11 A3025 RMK A01 T00611109  RH  029%=      5-min Rain = 0
KSGV 120040Z 02003KT 06/M11 A3025 RMK A01 T00601109  RH  029%=      5-min Rain = 0
KSGV 120045Z 02003KT 06/M11 A3025 RMK A01 T00581110  RH  029%=      5-min Rain = 0
KSGV 120050Z 03003KT 06/M11 A3025 RMK A01 T00551110  RH  030%=      5-min Rain = 0
KSGV 120055Z 03003KT 05/M11 A3025 RMK A01 T00521109  RH  030%=      5-min Rain = 0
KSGV 120100Z 03003KT 05/M11 A3025 RMK A01 T00501109  RH  031%=      5-min Rain = 0
KSGV 120105Z 02003KT 05/M11 A3025 RMK A01 T00461112  RH  031%=      5-min Rain = 0
KSGV 120110Z 03003KT 04/M11 A3025 RMK A01 T00401113  RH  032%=      5-min Rain = 0
KSGV 120115Z 03003KT 04/M11 A3025 RMK A01 T00391112  RH  033%=      5-min Rain = 0
KSGV 120120Z 02002KT 04/M11 A3025 RMK A01 T00381114  RH  032%=      5-min Rain = 0
KSGV 120125Z 35002KT 03/M11 A3025 RMK A01 T00281112  RH  035%=      5-min Rain = 0
KSGV 120130Z 34002KT 02/M12 A3026 RMK A01 T00191115  RH  037%=      5-min Rain = 0
KSGV 120135Z 33001KT 01/M12 A3026 RMK A01 T00121119  RH  037%=      5-min Rain = 0
KSGV 120140Z 34002KT 01/M12 A3026 RMK A01 T00071122  RH  038%=      5-min Rain = 0
KSGV 120145Z 35002KT 00/M12 A3026 RMK A01 T00041120  RH  040%=      5-min Rain = 0
KSGV 120150Z 33001KT 00/M12 A3026 RMK A01 T00011115  RH  042%=      5-min Rain = 0
KSGV 120155Z 35001KT M00/M12 A3026 RMK A01 T10011116  RH  042%=      5-min Rain = 0
KSGV 120200Z 02002KT 00/M12 A3026 RMK A01 T00021117  RH  041%=      5-min Rain = 0
KSGV 120205Z 04002KT 00/M12 A3026 RMK A01 T00041116  RH  041%=      5-min Rain = 0
KSGV 120210Z 01002KT 01/M11 A3026 RMK A01 T00051109  RH  043%=      5-min Rain = 0
KSGV 120215Z 01002KT 01/M11 A3026 RMK A01 T00061106  RH  043%=      5-min Rain = 0
KSGV 120220Z 36002KT 00/M11 A3026 RMK A01 T00021105  RH  045%=      5-min Rain = 0
KSGV 120225Z 34002KT M01/M11 A3026 RMK A01 T10051108  RH  046%=      5-min Rain = 0
KSGV 120230Z 34002KT M01/M11 A3026 RMK A01 T10111111  RH  047%=      5-min Rain = 0
KSGV 120235Z 35003KT M02/M11 A3026 RMK A01 T10181109  RH  051%=      5-min Rain = 0
KSGV 120240Z 35003KT M02/M10 A3026 RMK A01 T10191099  RH  055%=      5-min Rain = 0
KSGV 120245Z 00003KT M02/M10 A3026 RMK A01 T10171096  RH  055%=      5-min Rain = 0
KSGV 120250Z 01003KT M02/M10 A3026 RMK A01 T10161104  RH  052%=      5-min Rain = 0
KSGV 120255Z 01002KT M01/M11 A3026 RMK A01 T10141106  RH  050%=      5-min Rain = 0
KSGV 120300Z 01002KT M01/M11 A3026 RMK A01 T10131109  RH  049%=      5-min Rain = 0
KSGV 120305Z 01001KT M02/M11 A3027 RMK A01 T10181112  RH  049%=      5-min Rain = 0
KSGV 120310Z 01001KT M02/M11 A3027 RMK A01 T10231113  RH  051%=      5-min Rain = 0
KSGV 120315Z 01000KT M03/M11 A3027 RMK A01 T10251113  RH  051%=      5-min Rain = 0
KSGV 120320Z 35001KT M02/M11 A3027 RMK A01 T10241113  RH  051%=      5-min Rain = 0
KSGV 120325Z 36001KT M03/M12 A3027 RMK A01 T10271116  RH  051%=      5-min Rain = 0
KSGV 120330Z 33001KT M03/M12 A3027 RMK A01 T10291118  RH  051%=      5-min Rain = 0
KSGV 120335Z 34001KT M03/M12 A3027 RMK A01 T10301122  RH  050%=      5-min Rain = 0
KSGV 120340Z 00001KT M03/M12 A3027 RMK A01 T10311122  RH  050%=      5-min Rain = 0
KSGV 120345Z 01002KT M03/M12 A3027 RMK A01 T10301121  RH  050%=      5-min Rain = 0
KSGV 120350Z 01002KT M03/M12 A3027 RMK A01 T10291123  RH  049%=      5-min Rain = 0
KSGV 120355Z 02002KT M03/M13 A3027 RMK A01 T10301126  RH  048%=      5-min Rain = 0
KSGV 120400Z 02002KT M03/M13 A3027 RMK A01 T10301128  RH  048%=      5-min Rain = 0
KSGV 120405Z 01002KT M04/M14 A3027 RMK A01 T10361135  RH  047%=      5-min Rain = 0
KSGV 120410Z 01002KT M04/M14 A3027 RMK A01 T10431136  RH  049%=      5-min Rain = 0
KSGV 120415Z 01000KT M05/M14 A3027 RMK A01 T10461136  RH  050%=      5-min Rain = 0
KSGV 120420Z 00001KT M05/M13 A3027 RMK A01 T10461134  RH  051%=      5-min Rain = 0
KSGV 120425Z 34001KT M04/M13 A3027 RMK A01 T10441133  RH  050%=      5-min Rain = 0
KSGV 120430Z 34002KT M05/M14 A3028 RMK A01 T10451138  RH  049%=      5-min Rain = 0
KSGV 120435Z 33001KT M05/M14 A3028 RMK A01 T10471137  RH  050%=      5-min Rain = 0
KSGV 120440Z 32002KT M05/M14 A3028 RMK A01 T10481138  RH  050%=      5-min Rain = 0
KSGV 120445Z 32002KT M05/M13 A3028 RMK A01 T10491134  RH  052%=      5-min Rain = 0
KSGV 120450Z 33002KT M05/M13 A3028 RMK A01 T10481132  RH  053%=      5-min Rain = 0
KSGV 120455Z 32001KT M05/M13 A3028 RMK A01 T10501134  RH  052%=      5-min Rain = 0
KSGV 120500Z 32001KT M05/M13 A3028 RMK A01 T10501133  RH  053%=      5-min Rain = 0
KSGV 120505Z 34002KT M05/M14 A3028 RMK A01 T10481135  RH  051%=      5-min Rain = 0
KSGV 120510Z 33002KT M05/M14 A3028 RMK A01 T10471136  RH  050%=      5-min Rain = 0
KSGV 120515Z 33002KT M05/M14 A3028 RMK A01 T10481135  RH  051%=      5-min Rain = 0
KSGV 120520Z 33002KT M05/M12 A3028 RMK A01 T10451115  RH  059%=      5-min Rain = 0
KSGV 120525Z 33002KT M04/M11 A3028 RMK A01 T10421105  RH  063%=      5-min Rain = 0
KSGV 120530Z 34001KT M04/M10 A3028 RMK A01 T10411102  RH  063%=      5-min Rain = 0
KSGV 120535Z 35001KT M04/M10 A3028 RMK A01 T10431103  RH  064%=      5-min Rain = 0
KSGV 120540Z 36002KT M05/M10 A3028 RMK A01 T10451104  RH  064%=      5-min Rain = 0
KSGV 120545Z 35002KT M05/M11 A3028 RMK A01 T10471108  RH  063%=      5-min Rain = 0
KSGV 120550Z 34001KT M05/M12 A3028 RMK A01 T10511115  RH  062%=      5-min Rain = 0
KSGV 120555Z 33001KT M06/M12 A3028 RMK A01 T10551121  RH  060%=      5-min Rain = 0

Page generated in 0.0205 seconds.